Time;durP1;ratioP1;P1;durP2;ratioP2;P2;SDS_P1;SDS_P2;PMS_P1;PMS_P2;Temp;Humidity;BMP_temperature;BMP_pressure;BME280_temperature;BME280_humidity;BME280_pressure;Samples;Min_cycle;Max_cycle;Signal;HPM_P1;HPM_P2
2024/01/22 00:01:57;;;;;;;6.40;4.10;;;7.30;58.60;;;;;;5071154;28;20395;-74
2024/01/22 00:04:23;;;;;;;6.37;3.60;;;7.30;59.20;;;;;;5071410;28;20390;-74
2024/01/22 00:06:48;;;;;;;7.57;3.80;;;7.30;59.60;;;;;;5072720;28;20391;-75
2024/01/22 00:09:14;;;;;;;6.20;4.10;;;7.30;59.30;;;;;;5071288;28;20375;-76
2024/01/22 00:11:39;;;;;;;7.60;3.83;;;7.40;59.80;;;;;;5071865;28;20422;-75
2024/01/22 00:14:05;;;;;;;7.00;3.90;;;7.40;59.40;;;;;;5071696;28;20911;-75
2024/01/22 00:16:31;;;;;;;7.70;4.03;;;7.40;59.60;;;;;;5074058;28;20403;-74
2024/01/22 00:18:57;;;;;;;8.00;4.50;;;7.40;59.00;;;;;;5075200;28;20472;-76
2024/01/22 00:21:22;;;;;;;7.93;4.25;;;7.50;59.80;;;;;;5074958;28;20411;-74
2024/01/22 00:23:48;;;;;;;7.35;4.03;;;7.50;58.90;;;;;;5075738;28;20387;-75
2024/01/22 00:26:14;;;;;;;8.23;4.00;;;7.50;58.70;;;;;;5075618;28;20504;-76
2024/01/22 00:28:43;;;;;;;6.80;4.07;;;7.60;58.00;;;;;;5075684;28;20799;-74
2024/01/22 00:31:09;;;;;;;8.13;4.20;;;7.60;58.50;;;;;;5075505;28;20394;-75
2024/01/22 00:33:34;;;;;;;9.00;4.25;;;7.60;58.40;;;;;;5076936;28;20387;-76
2024/01/22 00:36:02;;;;;;;9.67;3.50;;;7.60;58.50;;;;;;5061686;28;20450;-74
2024/01/22 00:38:28;;;;;;;6.55;3.40;;;7.70;57.50;;;;;;5076117;28;20391;-76
2024/01/22 00:40:53;;;;;;;5.77;3.60;;;7.70;57.80;;;;;;5080401;28;20384;-75
2024/01/22 00:43:19;;;;;;;6.00;3.30;;;7.60;58.10;;;;;;5081031;28;20396;-75
2024/01/22 00:45:44;;;;;;;6.90;3.80;;;7.60;58.30;;;;;;5056333;28;20440;-76
2024/01/22 00:48:10;;;;;;;4.03;3.30;;;7.70;58.50;;;;;;5074024;28;20379;-75
2024/01/22 00:50:36;;;;;;;7.00;3.50;;;7.60;58.20;;;;;;5073749;28;20391;-73
2024/01/22 00:53:01;;;;;;;6.77;3.60;;;7.70;58.70;;;;;;5074021;28;20388;-75
2024/01/22 00:55:27;;;;;;;9.75;3.70;;;7.60;59.00;;;;;;5073952;28;20410;-75
2024/01/22 00:57:52;;;;;;;6.63;3.10;;;7.70;58.80;;;;;;5073975;28;20401;-74
2024/01/22 01:00:18;;;;;;;5.35;3.83;;;7.70;58.70;;;;;;5073815;28;20613;-75
2024/01/22 01:02:44;;;;;;;8.20;3.30;;;7.70;59.30;;;;;;5073517;28;20456;-75
2024/01/22 01:05:09;;;;;;;5.93;3.30;;;7.70;59.10;;;;;;5073429;28;20900;-75
2024/01/22 01:07:35;;;;;;;6.10;3.10;;;7.80;59.10;;;;;;5073556;28;20420;-74
2024/01/22 01:10:02;;;;;;;5.33;3.10;;;7.80;59.30;;;;;;5073480;28;20441;-74
2024/01/22 01:12:27;;;;;;;7.63;3.45;;;7.80;58.80;;;;;;5074848;28;20387;-75
2024/01/22 01:14:53;;;;;;;5.03;3.20;;;7.80;58.70;;;;;;5078028;28;20410;-75
2024/01/22 01:17:18;;;;;;;5.83;3.40;;;7.90;59.40;;;;;;5076559;28;20490;-75
2024/01/22 01:19:44;;;;;;;5.03;3.17;;;7.90;59.60;;;;;;5074019;28;20496;-75
2024/01/22 01:22:09;;;;;;;7.10;3.77;;;8.00;59.60;;;;;;5074117;28;20437;-76
2024/01/22 01:24:35;;;;;;;3.10;2.45;;;8.10;58.90;;;;;;5073890;28;20384;-76
2024/01/22 01:27:00;;;;;;;3.95;2.60;;;8.10;58.70;;;;;;5072648;28;20391;-74
2024/01/22 01:29:26;;;;;;;6.32;2.90;;;8.20;58.80;;;;;;5073299;28;20477;-76
2024/01/22 01:31:51;;;;;;;3.25;2.60;;;8.20;58.50;;;;;;5072878;28;20380;-76
2024/01/22 01:34:17;;;;;;;4.60;2.50;;;8.30;58.70;;;;;;5073086;28;20384;-76
2024/01/22 01:36:42;;;;;;;7.40;3.00;;;8.30;58.40;;;;;;5073245;28;20400;-75
2024/01/22 01:39:08;;;;;;;6.50;2.90;;;8.30;57.80;;;;;;5073061;28;20384;-75
2024/01/22 01:41:33;;;;;;;5.17;2.50;;;8.40;58.20;;;;;;5073879;28;20461;-75
2024/01/22 01:43:59;;;;;;;4.00;2.30;;;8.40;58.00;;;;;;5073864;28;20472;-75
2024/01/22 01:46:24;;;;;;;5.60;2.97;;;8.50;57.40;;;;;;5079039;28;20406;-75
2024/01/22 01:48:51;;;;;;;5.82;2.20;;;8.60;57.40;;;;;;5078848;28;20399;-74
2024/01/22 01:51:16;;;;;;;4.40;2.30;;;8.70;56.80;;;;;;5084194;28;20391;-75
2024/01/22 01:53:44;;;;;;;5.50;2.30;;;8.70;55.90;;;;;;5072582;28;20383;-74
2024/01/22 01:56:10;;;;;;;3.65;2.03;;;8.70;56.30;;;;;;5072437;28;20408;-76
2024/01/22 01:58:36;;;;;;;4.45;2.30;;;8.70;55.60;;;;;;5072525;28;20730;-75
2024/01/22 02:01:03;;;;;;;3.63;2.10;;;8.80;55.50;;;;;;5054574;28;20486;-74
2024/01/22 02:03:28;;;;;;;4.20;2.07;;;8.80;54.90;;;;;;5072212;28;20395;-75
2024/01/22 02:05:54;;;;;;;6.50;2.10;;;8.80;54.50;;;;;;5054286;28;20746;-75
2024/01/22 02:08:20;;;;;;;2.60;1.90;;;8.80;54.60;;;;;;5054423;28;20912;-75
2024/01/22 02:10:47;;;;;;;4.00;1.87;;;8.90;54.40;;;;;;5072836;28;20384;-75
2024/01/22 02:13:14;;;;;;;4.43;2.30;;;8.90;54.10;;;;;;5072592;28;20415;-75
2024/01/22 02:15:43;;;;;;;3.50;1.90;;;8.90;54.20;;;;;;5078602;28;20404;-75
2024/01/22 02:18:09;;;;;;;5.30;2.08;;;9.00;53.90;;;;;;5073846;28;20479;-76
2024/01/22 02:20:34;;;;;;;5.05;2.30;;;9.00;53.90;;;;;;5075777;28;20416;-74
2024/01/22 02:23:06;;;;;;;5.28;2.20;;;9.10;53.90;;;;;;5076276;28;20870;-74
2024/01/22 02:25:32;;;;;;;2.83;2.10;;;9.00;53.60;;;;;;5074144;28;20506;-75
2024/01/22 02:27:58;;;;;;;5.70;2.20;;;9.10;53.60;;;;;;5072318;28;20737;-75
2024/01/22 02:30:23;;;;;;;3.50;2.33;;;9.10;53.60;;;;;;5072109;28;20941;-75
2024/01/22 02:32:49;;;;;;;7.07;2.60;;;9.00;53.90;;;;;;5072603;28;20375;-75
2024/01/22 02:35:14;;;;;;;3.70;2.10;;;9.00;54.40;;;;;;5072182;28;20484;-75
2024/01/22 02:37:41;;;;;;;2.70;2.10;;;9.00;54.10;;;;;;5071875;28;20877;-75
2024/01/22 02:40:06;;;;;;;2.40;2.00;;;9.10;54.00;;;;;;5071623;28;20384;-76
2024/01/22 02:42:33;;;;;;;4.32;2.35;;;9.10;53.70;;;;;;5071638;28;20724;-75
2024/01/22 02:44:59;;;;;;;5.80;2.50;;;9.10;53.80;;;;;;5071988;28;20382;-76
2024/01/22 02:47:24;;;;;;;4.93;2.10;;;9.10;54.30;;;;;;5072109;28;20402;-75
2024/01/22 02:49:50;;;;;;;4.10;2.35;;;9.10;54.30;;;;;;5071321;28;20470;-76
2024/01/22 02:52:16;;;;;;;2.80;2.28;;;9.10;54.20;;;;;;5071834;28;20380;-75
2024/01/22 02:54:41;;;;;;;2.70;1.90;;;9.10;54.20;;;;;;5071180;28;20383;-76
2024/01/22 02:57:07;;;;;;;4.22;2.00;;;9.20;54.10;;;;;;5071481;28;20403;-76
2024/01/22 02:59:36;;;;;;;4.00;2.20;;;9.20;54.20;;;;;;5071062;28;20717;-76
2024/01/22 03:02:02;;;;;;;2.83;1.95;;;9.20;54.00;;;;;;5070995;28;20797;-76
2024/01/22 03:04:27;;;;;;;2.80;1.60;;;9.30;53.30;;;;;;5071396;28;20433;-75
2024/01/22 03:06:53;;;;;;;3.10;1.70;;;9.30;53.30;;;;;;5071664;28;20392;-76
2024/01/22 03:09:18;;;;;;;5.27;2.53;;;9.30;53.40;;;;;;5071405;28;20395;-75
2024/01/22 03:11:44;;;;;;;3.40;2.20;;;9.30;53.50;;;;;;5072213;28;20421;-76
2024/01/22 03:14:09;;;;;;;2.80;2.10;;;9.30;53.50;;;;;;5053665;28;20384;-75
2024/01/22 03:16:35;;;;;;;3.10;1.92;;;9.30;53.40;;;;;;5071103;28;20400;-75
2024/01/22 03:19:01;;;;;;;4.00;1.90;;;9.30;53.10;;;;;;5071074;28;20750;-76
2024/01/22 03:21:26;;;;;;;2.60;1.70;;;9.30;53.10;;;;;;5071452;28;20376;-75
2024/01/22 03:23:52;;;;;;;3.03;1.90;;;9.20;53.50;;;;;;5071133;28;20389;-76
2024/01/22 03:26:21;;;;;;;3.20;1.90;;;9.30;53.90;;;;;;5070978;28;20478;-76
2024/01/22 03:28:51;;;;;;;3.10;2.22;;;9.30;53.80;;;;;;5070939;28;20391;-76
2024/01/22 03:31:21;;;;;;;3.08;2.17;;;9.30;53.70;;;;;;5071101;28;20882;-75
2024/01/22 03:33:46;;;;;;;2.95;1.77;;;9.30;54.00;;;;;;5071145;28;20383;-76
2024/01/22 03:36:12;;;;;;;3.50;1.77;;;9.30;54.00;;;;;;5071493;28;20468;-75
2024/01/22 03:38:38;;;;;;;4.27;2.30;;;9.30;54.20;;;;;;5070893;28;20383;-76
2024/01/22 03:41:04;;;;;;;3.85;2.05;;;9.30;54.30;;;;;;5070771;28;20383;-75
2024/01/22 03:43:30;;;;;;;4.40;1.83;;;9.30;54.40;;;;;;5071028;28;20375;-76
2024/01/22 03:45:55;;;;;;;6.00;1.80;;;9.30;55.30;;;;;;5071223;28;20392;-76
2024/01/22 03:48:21;;;;;;;2.88;1.70;;;9.30;56.60;;;;;;5071164;28;20446;-76
2024/01/22 03:50:46;;;;;;;2.20;2.00;;;9.20;58.10;;;;;;5072941;28;20407;-76
2024/01/22 03:53:12;;;;;;;2.67;1.90;;;9.20;60.80;;;;;;5075547;28;20419;-76
2024/01/22 03:55:37;;;;;;;3.77;2.00;;;9.20;62.80;;;;;;5075476;28;20461;-76
2024/01/22 03:58:03;;;;;;;3.30;1.70;;;9.30;64.50;;;;;;5075641;28;20392;-75
2024/01/22 04:00:28;;;;;;;5.60;2.10;;;9.20;67.00;;;;;;5081257;28;20418;-76
2024/01/22 04:02:54;;;;;;;2.27;1.63;;;9.10;69.10;;;;;;5056960;28;20387;-76
2024/01/22 04:05:19;;;;;;;6.25;2.35;;;9.10;70.60;;;;;;5075363;28;20391;-75
2024/01/22 04:07:45;;;;;;;7.45;2.38;;;9.00;71.60;;;;;;5075117;28;20376;-75
2024/01/22 04:10:10;;;;;;;4.55;2.00;;;8.90;73.60;;;;;;5057115;28;20482;-76
2024/01/22 04:12:37;;;;;;;4.10;2.20;;;9.00;73.40;;;;;;5075165;28;20380;-76
2024/01/22 04:15:03;;;;;;;3.15;2.00;;;9.00;74.30;;;;;;5074929;28;20406;-75
2024/01/22 04:17:29;;;;;;;2.70;2.20;;;9.00;74.70;;;;;;5075151;28;20383;-76
2024/01/22 04:19:55;;;;;;;3.43;2.10;;;9.00;75.50;;;;;;5074686;28;20382;-76
2024/01/22 04:22:20;;;;;;;6.13;2.50;;;9.00;76.80;;;;;;5074498;28;20395;-76
2024/01/22 04:24:46;;;;;;;3.93;2.40;;;9.00;77.50;;;;;;5074919;28;20455;-75
2024/01/22 04:27:11;;;;;;;3.00;2.10;;;9.00;77.40;;;;;;5074219;28;20462;-76
2024/01/22 04:29:37;;;;;;;5.28;2.40;;;9.00;77.60;;;;;;5074360;28;20535;-75
2024/01/22 04:32:03;;;;;;;3.53;1.83;;;9.00;78.10;;;;;;5073983;28;20509;-76
2024/01/22 04:34:28;;;;;;;5.13;1.88;;;9.00;78.60;;;;;;5074536;28;20387;-76
2024/01/22 04:36:54;;;;;;;4.32;2.30;;;8.90;80.70;;;;;;5075965;28;20461;-75
2024/01/22 04:39:19;;;;;;;3.90;2.35;;;8.90;81.30;;;;;;5059065;28;20418;-78
2024/01/22 04:41:47;;;;;;;3.60;2.10;;;9.00;81.20;;;;;;5076910;28;20392;-76
2024/01/22 04:44:12;;;;;;;2.30;2.00;;;9.00;81.20;;;;;;5074606;28;20415;-76
2024/01/22 04:46:38;;;;;;;3.07;1.80;;;9.00;81.10;;;;;;5074043;28;20441;-75
2024/01/22 04:49:03;;;;;;;3.00;1.73;;;9.00;81.40;;;;;;5073833;28;20709;-76
2024/01/22 04:51:29;;;;;;;3.58;2.20;;;9.00;81.50;;;;;;5073649;28;20388;-76
2024/01/22 04:53:54;;;;;;;2.85;1.90;;;9.00;81.10;;;;;;5074172;28;20384;-76
2024/01/22 04:56:20;;;;;;;2.97;1.80;;;9.00;81.50;;;;;;5074077;28;20392;-76
2024/01/22 04:58:45;;;;;;;3.67;1.90;;;9.00;81.50;;;;;;5073706;28;20463;-75
2024/01/22 05:01:12;;;;;;;4.10;1.83;;;9.00;81.40;;;;;;5073263;28;20435;-75
2024/01/22 05:03:37;;;;;;;3.45;1.60;;;9.00;82.30;;;;;;5074550;28;20372;-75
2024/01/22 05:06:03;;;;;;;2.83;1.50;;;9.00;82.10;;;;;;5074128;28;20457;-76
2024/01/22 05:08:29;;;;;;;5.25;1.85;;;9.00;82.40;;;;;;5074498;28;20380;-76
2024/01/22 05:10:54;;;;;;;2.00;1.80;;;9.00;83.00;;;;;;5055763;28;20885;-75
2024/01/22 05:13:22;;;;;;;3.08;1.90;;;9.00;83.30;;;;;;5074316;28;20402;-74
2024/01/22 05:15:48;;;;;;;5.57;1.87;;;9.00;84.00;;;;;;5074783;28;20827;-74
2024/01/22 05:18:13;;;;;;;2.00;1.37;;;9.10;84.20;;;;;;5073659;28;20380;-74
2024/01/22 05:20:39;;;;;;;2.67;1.50;;;9.10;84.50;;;;;;5073489;28;20407;-74
2024/01/22 05:23:05;;;;;;;4.00;1.77;;;9.20;83.30;;;;;;5073862;28;20456;-75
2024/01/22 05:25:31;;;;;;;4.63;1.90;;;9.10;84.30;;;;;;5073130;28;20380;-75
2024/01/22 05:27:57;;;;;;;3.25;1.50;;;9.10;84.60;;;;;;5073278;28;20383;-76
2024/01/22 05:30:23;;;;;;;7.40;2.00;;;9.20;85.10;;;;;;5073430;28;20479;-75
2024/01/22 05:32:49;;;;;;;3.60;1.63;;;9.20;85.20;;;;;;5073579;28;20703;-76
2024/01/22 05:35:15;;;;;;;2.00;1.73;;;9.30;84.30;;;;;;5073566;28;20549;-76
2024/01/22 05:37:40;;;;;;;3.97;1.75;;;9.30;84.90;;;;;;5074836;28;20544;-74
2024/01/22 05:40:13;;;;;;;7.80;1.73;;;9.30;86.00;;;;;;5073623;28;20741;-76
2024/01/22 05:42:39;;;;;;;2.00;1.60;;;9.40;84.50;;;;;;5074016;28;20900;-75
2024/01/22 05:45:05;;;;;;;3.08;1.65;;;9.40;84.50;;;;;;5056892;28;20384;-76
2024/01/22 05:47:31;;;;;;;3.40;1.70;;;9.50;84.70;;;;;;5073772;28;20376;-76
2024/01/22 05:49:56;;;;;;;3.22;1.80;;;9.50;83.70;;;;;;5073418;28;20380;-75
2024/01/22 05:52:22;;;;;;;2.10;1.70;;;9.50;83.80;;;;;;5074160;28;20376;-75
2024/01/22 05:54:48;;;;;;;2.37;1.60;;;9.60;83.40;;;;;;5073224;28;20470;-76
2024/01/22 05:57:13;;;;;;;3.67;1.97;;;9.70;82.40;;;;;;5073114;28;20403;-74
2024/01/22 05:59:39;;;;;;;5.60;1.90;;;9.60;82.40;;;;;;5072958;28;20765;-76
2024/01/22 06:02:05;;;;;;;5.70;1.80;;;9.60;83.60;;;;;;5073287;28;20395;-76
2024/01/22 06:04:31;;;;;;;2.67;1.80;;;9.60;83.90;;;;;;5073467;28;20394;-75
2024/01/22 06:06:57;;;;;;;3.65;1.80;;;9.60;83.90;;;;;;5073329;28;20393;-75
2024/01/22 06:09:22;;;;;;;3.20;1.60;;;9.60;83.90;;;;;;5072848;28;20407;-75
2024/01/22 06:11:48;;;;;;;11.13;1.80;;;9.70;83.50;;;;;;5072809;28;20396;-76
2024/01/22 06:14:13;;;;;;;1.90;1.40;;;9.90;82.30;;;;;;5072580;28;20401;-75
2024/01/22 06:16:39;;;;;;;3.10;1.15;;;10.00;81.00;;;;;;5074966;28;20411;-75
2024/01/22 06:19:04;;;;;;;1.70;1.33;;;10.10;79.50;;;;;;5075217;28;20382;-75
2024/01/22 06:21:30;;;;;;;2.40;1.30;;;10.20;78.50;;;;;;5055455;28;20402;-75
2024/01/22 06:23:57;;;;;;;1.80;0.97;;;10.50;76.40;;;;;;5073419;28;20417;-76
2024/01/22 06:26:23;;;;;;;1.42;1.20;;;10.50;75.40;;;;;;5073166;28;20379;-75
2024/01/22 06:28:49;;;;;;;2.30;0.90;;;10.60;73.20;;;;;;5073082;28;20956;-76
2024/01/22 06:31:15;;;;;;;1.50;1.00;;;10.70;72.80;;;;;;5072788;28;20384;-76
2024/01/22 06:33:40;;;;;;;4.30;1.00;;;10.80;70.70;;;;;;5072494;28;20379;-76
2024/01/22 06:36:06;;;;;;;1.30;0.80;;;10.90;69.90;;;;;;5073908;28;20407;-76
2024/01/22 06:38:32;;;;;;;2.10;1.10;;;11.10;67.10;;;;;;5072904;28;20414;-75
2024/01/22 06:40:58;;;;;;;3.10;0.90;;;11.10;65.70;;;;;;5073603;28;20496;-75
2024/01/22 06:43:23;;;;;;;1.95;1.02;;;11.30;65.00;;;;;;5073077;28;20394;-77
2024/01/22 06:45:50;;;;;;;1.45;0.93;;;11.40;64.50;;;;;;5073511;28;20387;-75
2024/01/22 06:48:15;;;;;;;3.30;0.95;;;11.40;63.80;;;;;;5055004;28;20387;-76
2024/01/22 06:50:41;;;;;;;1.40;0.90;;;11.40;62.80;;;;;;5072404;28;20387;-76
2024/01/22 06:53:06;;;;;;;3.30;1.10;;;11.50;62.40;;;;;;5072881;28;20438;-76
2024/01/22 06:55:32;;;;;;;1.70;0.80;;;11.50;62.70;;;;;;5072328;28;20414;-76
2024/01/22 06:57:57;;;;;;;1.20;0.90;;;11.50;63.10;;;;;;5072463;28;20372;-77
2024/01/22 07:00:26;;;;;;;1.40;1.10;;;11.50;63.20;;;;;;5074028;28;20753;-76
2024/01/22 07:02:52;;;;;;;2.17;1.10;;;11.50;63.20;;;;;;5071155;28;20810;-75
2024/01/22 07:05:18;;;;;;;2.47;0.90;;;11.60;62.50;;;;;;5055696;28;20382;-76
2024/01/22 07:07:43;;;;;;;3.30;0.90;;;11.60;62.00;;;;;;5053287;28;20515;-75
2024/01/22 07:10:09;;;;;;;2.20;1.10;;;11.70;61.20;;;;;;5058832;28;20449;-75
2024/01/22 07:12:36;;;;;;;1.30;0.80;;;11.70;61.40;;;;;;5053812;28;20392;-74
2024/01/22 07:15:02;;;;;;;1.30;0.80;;;11.80;59.50;;;;;;5065970;28;20398;-75
2024/01/22 07:17:30;;;;;;;1.30;0.90;;;11.80;59.60;;;;;;5062871;28;20547;-74
2024/01/22 07:19:56;;;;;;;3.55;1.10;;;11.80;59.20;;;;;;5068879;28;20407;-74
2024/01/22 07:22:22;;;;;;;1.50;0.90;;;11.80;59.00;;;;;;5069052;28;20418;-76
2024/01/22 07:24:47;;;;;;;3.50;1.30;;;11.90;58.40;;;;;;5034118;28;20872;-74
2024/01/22 07:27:13;;;;;;;2.50;0.80;;;11.90;57.50;;;;;;5053727;28;20392;-71
2024/01/22 07:29:38;;;;;;;1.73;1.00;;;12.00;56.60;;;;;;5053370;28;20862;-74
2024/01/22 07:32:04;;;;;;;2.60;0.77;;;12.10;56.50;;;;;;5071908;28;20376;-73
2024/01/22 07:34:30;;;;;;;4.72;1.27;;;12.10;56.00;;;;;;5055679;28;20756;-74
2024/01/22 07:36:55;;;;;;;3.25;1.10;;;12.20;55.30;;;;;;5053979;28;20492;-72
2024/01/22 07:39:21;;;;;;;2.00;1.10;;;12.20;55.70;;;;;;5058548;28;20388;-74
2024/01/22 07:41:46;;;;;;;2.57;1.00;;;12.20;55.20;;;;;;5065215;28;20391;-73
2024/01/22 07:44:12;;;;;;;2.20;1.10;;;12.20;55.30;;;;;;5055409;28;20397;-72
2024/01/22 07:46:38;;;;;;;2.00;1.00;;;12.30;55.00;;;;;;5057534;28;20441;-72
2024/01/22 07:49:04;;;;;;;3.28;1.15;;;12.30;55.00;;;;;;5070587;28;20395;-74
2024/01/22 07:51:29;;;;;;;2.07;0.93;;;12.30;54.80;;;;;;5060802;28;20389;-72
2024/01/22 07:53:55;;;;;;;3.47;1.20;;;12.30;55.30;;;;;;5055218;28;20423;-72
2024/01/22 07:56:21;;;;;;;3.70;0.90;;;12.30;55.60;;;;;;5065176;28;20399;-75
2024/01/22 07:58:47;;;;;;;3.60;1.00;;;12.30;56.30;;;;;;5069937;28;20822;-77
2024/01/22 08:01:12;;;;;;;2.17;0.90;;;12.30;56.80;;;;;;5071209;28;20796;-77
2024/01/22 08:03:38;;;;;;;1.00;0.80;;;12.20;57.50;;;;;;5071929;28;20405;-75
2024/01/22 08:06:04;;;;;;;2.80;0.90;;;12.10;58.00;;;;;;5072154;28;20465;-75
2024/01/22 08:08:30;;;;;;;2.30;0.90;;;12.10;58.10;;;;;;5072873;28;20387;-77
2024/01/22 08:10:56;;;;;;;2.53;1.10;;;12.10;58.70;;;;;;5073150;28;20390;-75
2024/01/22 08:13:22;;;;;;;1.80;0.90;;;12.00;59.20;;;;;;5054901;28;20384;-77
2024/01/22 08:15:48;;;;;;;2.20;0.90;;;12.00;58.60;;;;;;5071044;28;20399;-77
2024/01/22 08:18:14;;;;;;;1.10;0.80;;;12.00;58.90;;;;;;5053050;28;20380;-75
2024/01/22 08:20:40;;;;;;;1.57;0.80;;;11.90;59.10;;;;;;5070862;28;20387;-76
2024/01/22 08:23:06;;;;;;;3.90;0.93;;;12.00;58.90;;;;;;5071929;28;20383;-75
2024/01/22 08:25:32;;;;;;;1.00;0.80;;;12.00;58.80;;;;;;5054141;28;20399;-76
2024/01/22 08:27:58;;;;;;;1.60;0.80;;;12.00;59.10;;;;;;5071914;28;20390;-77
2024/01/22 08:30:24;;;;;;;4.38;1.00;;;12.00;58.90;;;;;;5071881;28;20437;-74
2024/01/22 08:32:51;;;;;;;1.20;1.00;;;12.00;58.60;;;;;;5071194;28;20380;-76
2024/01/22 08:35:17;;;;;;;4.88;1.48;;;12.00;58.70;;;;;;5077936;22;20430;-71
2024/01/22 08:37:47;;;;;;;1.30;0.90;;;12.00;59.10;;;;;;5052513;28;20382;-70
2024/01/22 08:40:16;;;;;;;1.30;0.82;;;12.00;58.80;;;;;;5057179;28;20508;-71
2024/01/22 08:42:44;;;;;;;1.30;1.02;;;12.00;58.80;;;;;;5052193;28;20428;-70
2024/01/22 08:45:10;;;;;;;1.90;1.20;;;12.00;59.00;;;;;;5052832;28;20385;-71
2024/01/22 08:47:35;;;;;;;1.23;1.10;;;12.10;58.60;;;;;;5052761;28;20852;-71
2024/01/22 08:50:01;;;;;;;2.10;1.30;;;12.10;58.20;;;;;;5052915;28;20940;-70
2024/01/22 08:52:27;;;;;;;3.00;1.40;;;12.10;58.20;;;;;;5052666;28;20469;-70
2024/01/22 08:54:52;;;;;;;2.70;1.10;;;12.10;57.70;;;;;;5052437;28;20505;-71
2024/01/22 08:57:19;;;;;;;3.97;1.08;;;12.20;56.50;;;;;;5052385;28;20436;-70
2024/01/22 08:59:44;;;;;;;4.60;1.00;;;12.20;56.00;;;;;;5052619;28;20510;-71
2024/01/22 09:02:10;;;;;;;2.10;1.10;;;12.20;56.20;;;;;;5052477;28;20387;-71
2024/01/22 09:04:35;;;;;;;1.60;1.00;;;12.20;55.70;;;;;;5052607;28;20519;-71
2024/01/22 09:07:01;;;;;;;3.30;1.10;;;12.20;55.70;;;;;;5052491;28;20415;-71
2024/01/22 09:09:27;;;;;;;4.18;1.20;;;12.10;56.10;;;;;;5052086;28;20389;-71
2024/01/22 09:11:52;;;;;;;1.50;1.00;;;12.10;56.30;;;;;;5052496;28;20388;-72
2024/01/22 09:14:18;;;;;;;2.90;1.00;;;12.20;55.70;;;;;;5052751;28;20436;-71
2024/01/22 09:16:44;;;;;;;3.30;1.07;;;12.20;55.50;;;;;;5052630;28;20958;-72
2024/01/22 09:19:09;;;;;;;1.37;1.00;;;12.20;55.50;;;;;;5053078;28;20373;-70
2024/01/22 09:21:35;;;;;;;1.70;1.10;;;12.20;55.00;;;;;;5052251;28;20404;-72
2024/01/22 09:24:01;;;;;;;7.07;1.50;;;12.30;55.20;;;;;;5052327;28;20404;-70
2024/01/22 09:26:27;;;;;;;3.45;1.20;;;12.30;54.30;;;;;;5052431;28;20385;-74
2024/01/22 09:28:53;;;;;;;4.00;1.40;;;12.40;53.70;;;;;;5052103;28;20575;-70
2024/01/22 09:31:19;;;;;;;3.40;1.50;;;12.40;53.40;;;;;;5051726;28;20400;-70
2024/01/22 09:33:45;;;;;;;4.13;1.40;;;12.40;52.90;;;;;;5052179;28;20465;-70
2024/01/22 09:36:11;;;;;;;4.07;1.80;;;12.50;52.90;;;;;;5051582;28;20416;-71
2024/01/22 09:38:40;;;;;;;3.50;1.30;;;12.50;52.40;;;;;;5052248;28;20884;-71
2024/01/22 09:41:05;;;;;;;5.45;1.85;;;12.50;51.30;;;;;;5052198;28;20808;-71
2024/01/22 09:43:32;;;;;;;6.85;1.90;;;12.50;51.30;;;;;;5052153;28;20381;-70
2024/01/22 09:45:58;;;;;;;4.75;1.70;;;12.70;50.80;;;;;;5051881;28;20385;-70
2024/01/22 09:48:24;;;;;;;8.32;1.90;;;12.70;50.70;;;;;;5052954;28;20386;-70
2024/01/22 09:50:53;;;;;;;10.13;2.00;;;12.90;49.50;;;;;;5051689;28;20393;-71
2024/01/22 09:53:20;;;;;;;4.63;1.30;;;13.00;49.10;;;;;;5052453;28;20404;-72
2024/01/22 09:55:46;;;;;;;6.15;2.15;;;13.00;48.70;;;;;;5052443;28;20397;-71
2024/01/22 09:58:20;;;;;;;7.40;2.00;;;13.10;48.40;;;;;;5034089;28;20390;-72
2024/01/22 10:00:47;;;;;;;4.95;1.50;;;13.10;48.30;;;;;;5051623;28;20392;-71
2024/01/22 10:03:13;;;;;;;8.43;1.80;;;13.20;48.00;;;;;;5051644;28;20397;-71
2024/01/22 10:05:38;;;;;;;7.72;1.90;;;13.20;48.00;;;;;;5034095;28;20396;-70
2024/01/22 10:08:04;;;;;;;6.50;1.97;;;13.20;47.90;;;;;;5051686;28;20872;-71
2024/01/22 10:10:30;;;;;;;6.85;2.00;;;13.20;47.60;;;;;;5051319;28;20507;-71
2024/01/22 10:12:56;;;;;;;5.00;2.10;;;13.20;47.50;;;;;;5051686;28;20382;-71
2024/01/22 10:15:22;;;;;;;6.23;2.07;;;13.20;47.70;;;;;;5051273;28;20386;-71
2024/01/22 10:17:47;;;;;;;6.53;2.10;;;13.20;48.10;;;;;;5033553;28;20400;-71
2024/01/22 10:20:14;;;;;;;5.78;1.73;;;13.20;48.00;;;;;;5051425;28;20846;-71
2024/01/22 10:22:39;;;;;;;10.18;2.00;;;13.10;48.10;;;;;;5051266;28;20381;-71
2024/01/22 10:25:05;;;;;;;9.53;2.10;;;13.10;48.40;;;;;;5051217;28;20400;-71
2024/01/22 10:27:30;;;;;;;11.60;2.30;;;13.20;48.00;;;;;;5051216;28;20443;-71
2024/01/22 10:30:10;;;;;;;10.90;2.33;;;13.20;47.70;;;;;;5050865;28;20386;-71
2024/01/22 10:32:36;;;;;;;5.40;1.95;;;13.20;47.70;;;;;;5050766;28;20389;-71
2024/01/22 10:35:01;;;;;;;9.77;2.00;;;13.20;47.50;;;;;;5051247;28;20755;-71
2024/01/22 10:37:27;;;;;;;7.43;2.10;;;13.20;47.70;;;;;;5051004;28;20979;-72
2024/01/22 10:40:03;;;;;;;5.57;1.83;;;13.20;47.70;;;;;;5050735;28;20476;-71
2024/01/22 10:42:29;;;;;;;6.18;2.10;;;13.20;47.50;;;;;;5051167;28;20382;-70
2024/01/22 10:44:56;;;;;;;6.30;1.90;;;13.30;47.40;;;;;;5051329;28;20435;-70
2024/01/22 10:47:23;;;;;;;6.50;1.90;;;13.40;47.00;;;;;;5051082;28;20767;-70
2024/01/22 10:49:50;;;;;;;8.98;1.90;;;13.50;47.10;;;;;;5050918;28;20386;-70
2024/01/22 10:52:16;;;;;;;7.05;1.92;;;13.50;46.70;;;;;;5050735;28;20385;-71
2024/01/22 10:54:42;;;;;;;4.60;1.58;;;13.40;46.90;;;;;;5050505;28;20457;-71
2024/01/22 10:57:13;;;;;;;6.33;1.97;;;13.40;47.30;;;;;;5050784;28;20509;-70
2024/01/22 10:59:39;;;;;;;8.02;1.80;;;13.40;47.40;;;;;;5050979;28;20412;-71
2024/01/22 11:02:15;;;;;;;4.63;1.60;;;13.40;47.50;;;;;;5051771;28;20413;-71
2024/01/22 11:04:44;;;;;;;5.45;1.35;;;13.40;47.80;;;;;;5051772;28;20424;-71
2024/01/22 11:07:11;;;;;;;4.28;1.63;;;13.20;48.50;;;;;;5051900;28;20403;-71
2024/01/22 11:09:38;;;;;;;7.57;1.48;;;13.20;48.90;;;;;;5052062;28;20542;-70
2024/01/22 11:12:12;;;;;;;7.73;1.47;;;13.20;48.90;;;;;;5051441;28;20385;-71
2024/01/22 11:14:41;;;;;;;5.43;1.60;;;13.20;48.60;;;;;;5052036;28;20377;-71
2024/01/22 11:17:09;;;;;;;4.93;1.58;;;13.20;49.10;;;;;;5051074;28;20879;-72
2024/01/22 11:19:35;;;;;;;7.72;1.90;;;13.20;49.10;;;;;;5050613;28;20389;-70
2024/01/22 11:22:21;;;;;;;5.03;1.70;;;13.10;49.10;;;;;;5051215;28;20385;-71
2024/01/22 11:25:06;;;;;;;5.07;1.57;;;13.10;49.50;;;;;;5051452;28;20377;-71
2024/01/22 11:27:39;;;;;;;4.30;1.30;;;13.10;49.80;;;;;;5050558;28;20401;-71
2024/01/22 11:30:22;;;;;;;6.95;1.42;;;13.00;50.20;;;;;;5049904;28;20397;-71
2024/01/22 11:32:49;;;;;;;6.60;1.40;;;12.90;50.30;;;;;;5032145;28;20386;-70
2024/01/22 11:35:37;;;;;;;5.50;1.70;;;13.00;50.10;;;;;;5049791;28;20480;-71
2024/01/22 11:38:04;;;;;;;7.03;1.58;;;13.00;50.00;;;;;;5050435;28;20707;-70
2024/01/22 11:40:55;;;;;;;5.18;1.45;;;13.00;49.90;;;;;;5049964;28;20386;-70
2024/01/22 11:43:22;;;;;;;6.70;1.50;;;13.00;50.20;;;;;;5050029;28;20382;-72
2024/01/22 11:45:56;;;;;;;5.97;1.60;;;13.00;50.10;;;;;;5049832;28;20502;-71
2024/01/22 11:48:22;;;;;;;5.50;1.58;;;13.00;50.20;;;;;;5050666;28;20381;-71
2024/01/22 11:51:00;;;;;;;4.15;1.80;;;12.90;50.50;;;;;;5051297;28;20389;-71
2024/01/22 11:53:27;;;;;;;2.75;1.50;;;12.90;50.50;;;;;;5053145;28;20389;-72
2024/01/22 11:56:05;;;;;;;6.55;1.10;;;12.90;50.50;;;;;;5050798;28;20898;-71
2024/01/22 11:58:33;;;;;;;6.63;1.50;;;12.90;50.70;;;;;;5050017;28;20394;-72
2024/01/22 12:01:08;;;;;;;4.38;1.40;;;12.90;51.30;;;;;;5050079;28;20868;-72
2024/01/22 12:03:34;;;;;;;4.75;1.40;;;12.90;53.90;;;;;;5032035;28;20817;-71
2024/01/22 12:06:07;;;;;;;5.70;1.40;;;12.70;57.40;;;;;;5031892;28;20472;-72
2024/01/22 12:08:34;;;;;;;6.10;1.20;;;12.60;60.20;;;;;;5049773;28;20994;-72
2024/01/22 12:11:16;;;;;;;4.85;1.23;;;12.60;61.70;;;;;;5049964;28;20393;-72
2024/01/22 12:13:42;;;;;;;13.05;1.80;;;12.60;61.50;;;;;;5053681;28;20516;-72
2024/01/22 12:16:18;;;;;;;5.80;1.40;;;12.50;62.20;;;;;;5053405;28;20413;-72
2024/01/22 12:18:45;;;;;;;5.83;1.50;;;12.50;59.40;;;;;;5053787;28;20442;-72
2024/01/22 12:21:11;;;;;;;7.03;1.80;;;12.50;59.20;;;;;;5053766;28;20798;-72
2024/01/22 12:23:38;;;;;;;7.22;1.50;;;12.60;56.60;;;;;;5053736;28;20472;-72
2024/01/22 12:26:11;;;;;;;8.32;1.60;;;12.60;54.80;;;;;;5053207;28;20381;-71
2024/01/22 12:28:36;;;;;;;8.23;2.00;;;12.70;54.60;;;;;;5053346;28;20400;-71
2024/01/22 12:31:03;;;;;;;10.82;1.90;;;12.70;53.20;;;;;;5053166;28;20385;-71
2024/01/22 12:33:32;;;;;;;6.97;1.95;;;12.80;51.70;;;;;;5053223;28;20392;-71
2024/01/22 12:36:07;;;;;;;6.65;1.70;;;12.80;51.10;;;;;;5052399;28;20466;-71
2024/01/22 12:38:35;;;;;;;12.32;2.10;;;12.90;50.60;;;;;;5053122;28;20374;-71
2024/01/22 12:41:04;;;;;;;5.90;1.80;;;12.90;49.90;;;;;;5053114;28;20389;-70
2024/01/22 12:43:30;;;;;;;7.90;1.90;;;13.00;50.00;;;;;;5053061;28;20382;-71
2024/01/22 12:46:14;;;;;;;12.48;2.30;;;13.20;49.60;;;;;;5052779;28;20435;-71
2024/01/22 12:48:41;;;;;;;11.45;2.40;;;13.30;49.20;;;;;;5053008;28;20390;-71